createdAt,value
2016-04-20T08:28:17.972Z,22.3
2016-04-20T08:29:15.990Z,22.3
2016-04-20T08:30:14.039Z,22.3
2016-04-20T08:31:12.058Z,22.3
2016-04-20T08:32:10.123Z,22.3
2016-04-20T08:33:08.126Z,22.3
2016-04-20T08:34:06.160Z,22.3
2016-04-20T08:35:04.271Z,22.3
2016-04-20T08:36:05.274Z,22.3
2016-04-20T08:37:03.308Z,22.3
2016-04-20T08:38:01.342Z,22.4
2016-04-20T08:38:59.376Z,22.3
2016-04-20T08:39:57.426Z,22.4
2016-04-20T08:40:55.444Z,22.4
2016-04-20T08:41:53.603Z,22.4
2016-04-20T08:42:51.512Z,22.4
2016-04-20T08:43:49.671Z,22.4
2016-04-20T08:44:47.640Z,22.4
2016-04-20T08:45:48.661Z,22.4
2016-04-20T08:46:46.692Z,22.5
2016-04-20T08:47:44.476Z,22.5
2016-04-20T08:48:42.260Z,22.5
2016-04-20T08:49:40.045Z,22.4
2016-04-20T08:50:37.828Z,22.5
2016-04-20T08:51:35.596Z,22.4
2016-04-20T08:52:33.364Z,22.5
2016-04-20T08:53:31.148Z,22.5
2016-04-20T08:54:28.995Z,22.5
2016-04-20T08:55:30.013Z,22.5
2016-04-20T08:56:27.797Z,22.5
2016-04-20T08:57:25.565Z,22.4
2016-04-20T08:58:23.475Z,22.5
2016-04-20T08:59:21.149Z,22.5
2016-04-20T09:00:18.949Z,22.5
2016-04-20T09:01:16.717Z,22.5
2016-04-20T09:02:14.516Z,22.5
2016-04-20T09:03:12.472Z,22.6
2016-04-20T09:04:10.115Z,22.5
2016-04-20T09:05:11.243Z,22.5
2016-04-20T09:06:08.917Z,22.5
2016-04-20T09:07:06.686Z,22.5
2016-04-20T09:08:04.454Z,22.5
2016-04-20T09:09:02.238Z,22.6
2016-04-20T09:10:00.132Z,22.6
2016-04-20T09:10:57.791Z,22.5
2016-04-20T09:11:55.574Z,22.6
2016-04-20T09:12:53.359Z,22.6
2016-04-20T09:13:51.190Z,22.6
2016-04-20T09:14:52.223Z,22.6
2016-04-20T09:15:49.992Z,22.6
2016-04-20T09:16:48.023Z,22.6
2016-04-20T09:17:46.056Z,22.6
2016-04-20T09:18:44.340Z,22.6
2016-04-20T09:19:42.656Z,22.6
2016-04-20T09:20:40.924Z,22.6
2016-04-20T09:21:39.192Z,22.7
2016-04-20T09:22:37.616Z,22.7
2016-04-20T09:23:35.947Z,22.7
2016-04-20T09:24:36.841Z,22.7
2016-04-20T09:25:35.499Z,22.7
2016-04-20T09:26:33.939Z,22.8
2016-04-20T09:27:32.441Z,22.7
2016-04-20T09:28:31.351Z,22.7
2016-04-20T09:29:30.151Z,22.8
2016-04-20T09:30:28.825Z,22.8
2016-04-20T09:31:27.609Z,22.8
2016-04-20T09:32:26.409Z,22.8
2016-04-20T09:33:25.270Z,22.8
2016-04-20T09:34:26.398Z,22.8
2016-04-20T09:35:25.213Z,22.7
2016-04-20T09:36:24.247Z,22.7
2016-04-20T09:37:23.187Z,22.7
2016-04-20T09:38:22.236Z,22.8
2016-04-20T09:39:21.381Z,22.7
2016-04-20T09:40:20.305Z,22.7
2016-04-20T09:41:19.745Z,22.8
2016-04-20T09:42:18.904Z,22.7
2016-04-20T09:43:18.391Z,22.7
2016-04-20T09:44:19.394Z,22.7
2016-04-20T09:45:18.443Z,22.7
2016-04-20T09:46:17.383Z,22.7
2016-04-20T09:47:16.792Z,22.8
2016-04-20T09:48:16.092Z,22.7
2016-04-20T09:49:15.283Z,22.7
2016-04-20T09:50:14.582Z,22.7
2016-04-20T09:51:13.897Z,22.8
2016-04-20T09:52:13.305Z,22.8
2016-04-20T09:53:12.558Z,22.8
2016-04-20T09:54:13.561Z,22.8
2016-04-20T09:55:12.861Z,22.8
2016-04-20T09:56:12.160Z,22.9
2016-04-20T09:57:11.476Z,22.9
2016-04-20T09:58:10.760Z,22.9
2016-04-20T09:59:10.059Z,22.8
2016-04-20T10:00:09.374Z,22.8
2016-04-20T10:01:08.657Z,22.8
2016-04-20T10:02:07.957Z,22.8
2016-04-20T10:03:07.585Z,22.9
2016-04-20T10:04:08.587Z,22.9
2016-04-20T10:05:07.887Z,22.9
2016-04-20T10:06:07.203Z,22.9
2016-04-20T10:07:06.486Z,22.9
2016-04-20T10:08:05.817Z,22.8
2016-04-20T10:09:05.101Z,22.8
2016-04-20T10:10:04.401Z,22.8
2016-04-20T10:11:03.810Z,22.8
2016-04-20T10:12:03.000Z,22.8
2016-04-20T10:13:02.347Z,22.8
2016-04-20T10:14:03.365Z,22.8
2016-04-20T10:15:02.790Z,22.8
2016-04-20T10:16:01.964Z,22.8
2016-04-20T10:17:01.280Z,22.8
2016-04-20T10:18:00.595Z,22.8
2016-04-20T10:18:59.878Z,22.8
2016-04-20T10:19:59.350Z,22.9
2016-04-20T10:20:58.728Z,22.8
2016-04-20T10:21:58.027Z,22.8
2016-04-20T10:22:57.499Z,22.8
2016-04-20T10:23:58.424Z,22.9
2016-04-20T10:24:57.707Z,22.9
2016-04-20T10:25:57.007Z,22.9
2016-04-20T10:26:56.415Z,22.9
2016-04-20T10:27:55.605Z,22.9
2016-04-20T10:28:54.905Z,22.9
2016-04-20T10:29:54.205Z,22.9
2016-04-20T10:30:53.504Z,22.9
2016-04-20T10:31:52.913Z,22.9
2016-04-20T10:32:52.151Z,22.9
2016-04-20T10:33:53.185Z,22.9
2016-04-20T10:34:52.469Z,22.9
2016-04-20T10:35:51.768Z,22.9
2016-04-20T10:36:51.067Z,22.9
2016-04-20T10:37:50.379Z,22.9
2016-04-20T10:38:49.679Z,22.9
2016-04-20T10:39:48.979Z,22.9
2016-04-20T10:40:48.278Z,22.9
2016-04-20T10:41:47.579Z,22.9
2016-04-20T10:42:46.925Z,22.9
2016-04-20T10:43:47.959Z,22.9
2016-04-20T10:44:47.242Z,22.9
2016-04-20T10:45:46.558Z,22.9
2016-04-20T10:46:45.858Z,22.9
2016-04-20T10:47:45.267Z,22.9
2016-04-20T10:48:44.456Z,22.9
2016-04-20T10:49:43.787Z,22.9
2016-04-20T10:50:43.055Z,22.9
2016-04-20T10:51:42.355Z,22.9
2016-04-20T10:52:41.717Z,22.9
2016-04-20T10:53:42.735Z,22.9
2016-04-20T10:54:42.144Z,22.9
2016-04-20T10:55:41.335Z,22.9
2016-04-20T10:56:40.635Z,22.9
2016-04-20T10:57:39.949Z,22.8
2016-04-20T10:58:39.233Z,22.9
2016-04-20T10:59:38.532Z,22.8
2016-04-20T11:00:37.832Z,22.8
2016-04-20T11:01:37.257Z,22.8
2016-04-20T11:02:36.494Z,22.8
2016-04-20T11:03:37.513Z,22.8
2016-04-20T11:04:36.921Z,22.7
2016-04-20T11:05:36.127Z,22.8
2016-04-20T11:06:35.411Z,22.8
2016-04-20T11:07:34.710Z,22.7
2016-04-20T11:08:34.026Z,22.8
2016-04-20T11:09:33.310Z,22.7
2016-04-20T11:10:32.734Z,22.7
2016-04-20T11:11:31.909Z,22.7
2016-04-20T11:12:31.271Z,22.8
2016-04-20T11:13:32.290Z,22.7
2016-04-20T11:14:31.698Z,22.7
2016-04-20T11:15:30.904Z,22.7
2016-04-20T11:16:30.047Z,22.7
2016-04-20T11:17:29.237Z,22.7
2016-04-20T11:18:28.537Z,22.7
2016-04-20T11:19:27.837Z,22.7
2016-04-20T11:20:27.246Z,22.7
2016-04-20T11:21:26.452Z,22.7
2016-04-20T11:22:25.798Z,22.7
2016-04-20T11:23:26.816Z,22.7
2016-04-20T11:24:26.116Z,22.7
2016-04-20T11:25:25.416Z,22.7
2016-04-20T11:26:24.715Z,22.7
2016-04-20T11:27:24.014Z,22.7
2016-04-20T11:28:23.313Z,22.7
2016-04-20T11:29:22.738Z,22.7
2016-04-20T11:30:21.913Z,22.7
2016-04-20T11:31:21.213Z,22.7
2016-04-20T11:32:20.591Z,22.7
2016-04-20T11:33:21.703Z,22.7
2016-04-20T11:34:20.893Z,22.7
2016-04-20T11:35:20.224Z,22.7
2016-04-20T11:36:19.492Z,22.7
2016-04-20T11:37:18.901Z,22.7
2016-04-20T11:38:18.216Z,22.7
2016-04-20T11:39:17.391Z,22.7
2016-04-20T11:40:16.690Z,22.7
2016-04-20T11:41:15.990Z,22.7
2016-04-20T11:42:15.351Z,22.7
2016-04-20T11:43:16.370Z,22.7
2016-04-20T11:44:15.669Z,22.7
2016-04-20T11:45:14.954Z,22.7
2016-04-20T11:46:14.253Z,22.7
2016-04-20T11:47:13.567Z,22.7
2016-04-20T11:48:12.868Z,22.7
2016-04-20T11:49:11.902Z,22.7
2016-04-20T11:50:10.951Z,22.7
2016-04-20T11:51:10.001Z,22.7
2016-04-20T11:52:09.097Z,22.7
2016-04-20T11:53:10.116Z,22.6
2016-04-20T11:54:09.166Z,22.6
2016-04-20T11:55:08.214Z,22.6
2016-04-20T11:56:07.389Z,22.6
2016-04-20T11:57:06.563Z,22.6
2016-04-20T11:58:05.613Z,22.6
2016-04-20T11:59:04.914Z,22.6
2016-04-20T12:00:03.963Z,22.6
2016-04-20T12:01:03.263Z,22.6
2016-04-20T12:02:02.624Z,22.6
2016-04-20T12:03:03.642Z,22.6
2016-04-20T12:04:02.676Z,22.6
2016-04-20T12:05:01.727Z,22.6
2016-04-20T12:06:01.057Z,22.6
2016-04-20T12:07:00.326Z,22.6
2016-04-20T12:07:59.624Z,22.6
2016-04-20T12:08:58.940Z,22.5
2016-04-20T12:09:58.239Z,22.5
2016-04-20T12:10:57.539Z,22.5
2016-04-20T12:11:56.886Z,22.5
2016-04-20T12:12:57.904Z,22.5
2016-04-20T12:13:57.220Z,22.5
2016-04-20T12:14:56.628Z,22.5
2016-04-20T12:15:55.817Z,22.5
2016-04-20T12:16:55.099Z,22.5
2016-04-20T12:17:54.415Z,22.5
2016-04-20T12:18:53.824Z,22.5
2016-04-20T12:19:53.014Z,22.5
2016-04-20T12:20:52.314Z,22.5
2016-04-20T12:21:51.675Z,22.5
2016-04-20T12:22:52.678Z,22.5
2016-04-20T12:23:51.978Z,22.5
2016-04-20T12:24:51.402Z,22.5
2016-04-20T12:25:50.592Z,22.5
2016-04-20T12:26:49.891Z,22.5
2016-04-20T12:27:49.222Z,22.5
2016-04-20T12:28:48.491Z,22.5
2016-04-20T12:29:47.791Z,22.5
2016-04-20T12:30:47.090Z,22.4
2016-04-20T12:31:46.453Z,22.4
2016-04-20T12:32:47.579Z,22.4
2016-04-20T12:33:46.770Z,22.4
2016-04-20T12:34:46.069Z,22.4
2016-04-20T12:35:45.588Z,22.4
2016-04-20T12:36:44.779Z,22.4
2016-04-20T12:37:43.969Z,22.4
2016-04-20T12:38:43.377Z,22.4
2016-04-20T12:39:42.568Z,22.4
2016-04-20T12:40:41.977Z,22.4
2016-04-20T12:41:41.230Z,22.4
2016-04-20T12:42:42.232Z,22.4
2016-04-20T12:43:41.531Z,22.4
2016-04-20T12:44:40.831Z,22.3
2016-04-20T12:45:40.256Z,22.3
2016-04-20T12:46:39.431Z,22.3
2016-04-20T12:47:38.730Z,22.3
2016-04-20T12:48:38.029Z,22.3
2016-04-20T12:49:37.329Z,22.3
2016-04-20T12:50:36.644Z,22.3
2016-04-20T12:51:36.115Z,22.3
2016-04-20T12:52:37.009Z,22.3
2016-04-20T12:53:36.433Z,22.3
2016-04-20T12:54:35.623Z,22.3
2016-04-20T12:55:35.033Z,22.3
2016-04-20T12:56:34.208Z,22.3
2016-04-20T12:57:33.647Z,22.2
2016-04-20T12:58:32.806Z,22.2
2016-04-20T12:59:32.106Z,22.3
2016-04-20T13:00:31.421Z,22.2
2016-04-20T13:01:30.766Z,22.3
2016-04-20T13:02:31.785Z,22.3
2016-04-20T13:03:31.086Z,22.3
2016-04-20T13:04:30.385Z,22.2
2016-04-20T13:05:29.685Z,22.3
2016-04-20T13:06:28.999Z,22.3
2016-04-20T13:07:28.299Z,22.3
2016-04-20T13:08:27.599Z,22.3
2016-04-20T13:09:26.899Z,22.3
2016-04-20T13:10:26.198Z,22.3
2016-04-20T13:11:25.543Z,22.3
2016-04-20T13:12:26.687Z,22.3
2016-04-20T13:13:25.862Z,22.3
2016-04-20T13:14:25.162Z,22.3
2016-04-20T13:15:24.462Z,22.3
2016-04-20T13:16:23.886Z,22.3
2016-04-20T13:17:23.076Z,22.3
2016-04-20T13:18:22.376Z,22.3
2016-04-20T13:19:21.675Z,22.3
2016-04-20T13:20:21.084Z,22.3
2016-04-20T13:21:20.337Z,22.3
2016-04-20T13:22:21.355Z,22.3
2016-04-20T13:23:20.655Z,22.3
2016-04-20T13:24:19.953Z,22.3
2016-04-20T13:25:19.253Z,22.3
2016-04-20T13:26:18.553Z,22.3
2016-04-20T13:27:17.853Z,22.3
2016-04-20T13:28:17.153Z,22.3
2016-04-20T13:29:16.467Z,22.3
2016-04-20T13:30:15.767Z,22.3
2016-04-20T13:31:15.113Z,22.3
2016-04-20T13:32:16.133Z,22.3
2016-04-20T13:33:15.447Z,22.3
2016-04-20T13:34:14.856Z,22.3
2016-04-20T13:35:14.046Z,22.3
2016-04-20T13:36:13.346Z,22.3
2016-04-20T13:37:12.645Z,22.2
2016-04-20T13:38:12.055Z,22.2
2016-04-20T13:39:11.244Z,22.3
2016-04-20T13:40:10.544Z,22.2
2016-04-20T13:41:09.907Z,22.2
2016-04-20T13:42:10.924Z,22.3
2016-04-20T13:43:10.333Z,22.2
2016-04-20T13:44:09.524Z,22.2
2016-04-20T13:45:08.823Z,22.2
2016-04-20T13:46:08.123Z,22.2
2016-04-20T13:47:07.422Z,22.2
2016-04-20T13:48:06.723Z,22.2
2016-04-20T13:49:06.021Z,22.2
2016-04-20T13:50:05.321Z,22.2
2016-04-20T13:51:04.792Z,22.2
2016-04-20T13:52:05.702Z,22.2
2016-04-20T13:53:05.001Z,22.2
2016-04-20T13:54:04.300Z,22.2
2016-04-20T13:55:03.600Z,22.1
2016-04-20T13:56:02.900Z,22.2
2016-04-20T13:57:02.199Z,22.2
2016-04-20T13:58:01.625Z,22.2
2016-04-20T13:59:00.923Z,22.2
2016-04-20T14:00:00.095Z,22.2
2016-04-20T14:00:59.473Z,22.1
2016-04-20T14:02:00.476Z,22.2
2016-04-20T14:02:59.775Z,22.2
2016-04-20T14:03:59.200Z,22.2
2016-04-20T14:04:58.952Z,22.2
2016-04-20T14:06:57.488Z,22.2
2016-04-20T14:08:56.213Z,22.2
2016-04-20T14:09:55.388Z,22.3
2016-04-20T14:10:54.875Z,22.3
2016-04-20T14:11:55.768Z,22.3
2016-04-20T14:12:55.083Z,22.3
2016-04-20T14:13:54.368Z,22.3
2016-04-20T14:14:53.668Z,22.3
2016-04-20T14:15:52.966Z,22.3
2016-04-20T14:16:52.265Z,22.3
2016-04-20T14:17:51.565Z,22.3
2016-04-20T14:18:50.881Z,22.3
2016-04-20T14:19:50.181Z,22.2
2016-04-20T14:20:49.652Z,22.3
2016-04-20T14:21:50.545Z,22.3
2016-04-20T14:22:49.971Z,22.3
2016-04-20T14:23:49.160Z,22.2
2016-04-20T14:24:48.460Z,22.3
2016-04-20T14:25:47.776Z,22.3
2016-04-20T14:26:47.060Z,22.3
2016-04-20T14:27:46.359Z,22.3
2016-04-20T14:28:45.659Z,22.3
2016-04-20T14:29:45.084Z,22.3
2016-04-20T14:30:44.321Z,22.3
2016-04-20T14:31:45.339Z,22.3
2016-04-20T14:32:44.637Z,22.3
2016-04-20T14:33:43.937Z,22.3
2016-04-20T14:34:43.362Z,22.2
2016-04-20T14:35:42.553Z,22.2
2016-04-20T14:36:41.852Z,22.2
2016-04-20T14:37:41.261Z,22.2
2016-04-20T14:38:40.561Z,22.2
2016-04-20T14:39:39.876Z,22.2
2016-04-20T14:40:39.113Z,22.2
2016-04-20T14:41:40.131Z,22.2
2016-04-20T14:42:39.556Z,22.2
2016-04-20T14:43:38.730Z,22.2
2016-04-20T14:44:38.030Z,22.2
2016-04-20T14:45:37.345Z,22.1
2016-04-20T14:46:36.645Z,22.1
2016-04-20T14:47:35.944Z,22.1
2016-04-20T14:48:35.353Z,22.1
2016-04-20T14:49:34.544Z,22.1
2016-04-20T14:50:34.015Z,22.1
2016-04-20T14:51:34.924Z,22.1
2016-04-20T14:52:34.223Z,22.1
2016-04-20T14:53:33.523Z,22.1
2016-04-20T14:54:32.822Z,22.1
2016-04-20T14:55:32.122Z,22.1
2016-04-20T14:56:31.437Z,22.1
2016-04-20T14:57:30.846Z,22.1
2016-04-20T14:58:30.021Z,22.1
2016-04-20T14:59:29.446Z,22.1
2016-04-20T15:00:28.807Z,22.1
2016-04-20T15:01:29.701Z,22.1
2016-04-20T15:02:29.000Z,22.1
2016-04-20T15:03:28.315Z,22.1
2016-04-20T15:04:27.614Z,22.1
2016-04-20T15:05:26.914Z,22.1
2016-04-20T15:06:26.214Z,22.1
2016-04-20T15:07:25.514Z,22.1
2016-04-20T15:08:24.954Z,22.2
2016-04-20T15:09:24.113Z,22.1
2016-04-20T15:10:23.475Z,22.2
2016-04-20T15:11:24.493Z,22.2
2016-04-20T15:12:23.792Z,22.2
2016-04-20T15:13:23.092Z,22.2
2016-04-20T15:14:22.391Z,22.2
2016-04-20T15:15:21.691Z,22.2
2016-04-20T15:16:20.991Z,22.2
2016-04-20T15:17:20.290Z,22.2
2016-04-20T15:18:19.590Z,22.2
2016-04-20T15:19:18.889Z,22.2
2016-04-20T15:20:18.252Z,22.2
2016-04-20T15:21:19.285Z,22.2
2016-04-20T15:22:18.569Z,22.2
2016-04-20T15:23:17.869Z,22.2
2016-04-20T15:24:17.184Z,22.1
2016-04-20T15:25:16.484Z,22.2
2016-04-20T15:26:15.893Z,22.1
2016-04-20T15:27:15.082Z,22.1
2016-04-20T15:28:14.508Z,22.1
2016-04-20T15:29:13.682Z,22.1
2016-04-20T15:30:13.154Z,22.1
2016-04-20T15:31:14.062Z,22.2
2016-04-20T15:32:13.487Z,22.1
2016-04-20T15:33:12.662Z,22.1
2016-04-20T15:34:11.961Z,22.1
2016-04-20T15:35:11.276Z,22.1
2016-04-20T15:36:10.564Z,22.1
2016-04-20T15:37:09.864Z,22.2
2016-04-20T15:38:09.289Z,22.1
2016-04-20T15:39:08.463Z,22.1
2016-04-20T15:40:07.826Z,22.1
2016-04-20T15:41:08.844Z,22.1
2016-04-20T15:42:08.144Z,22.1
2016-04-20T15:43:07.444Z,22.1
2016-04-20T15:44:06.869Z,22.1
2016-04-20T15:45:06.042Z,22.1
2016-04-20T15:46:05.467Z,22.1
2016-04-20T15:47:04.658Z,22.1
2016-04-20T15:48:04.064Z,22.1
2016-04-20T15:49:03.255Z,22.1
2016-04-20T15:50:02.632Z,22.1
2016-04-20T15:51:03.619Z,22.1
2016-04-20T15:52:02.918Z,22.1
2016-04-20T15:53:02.218Z,22.1
2016-04-20T15:54:01.533Z,22.1
2016-04-20T15:55:00.832Z,22.1
2016-04-20T15:56:00.132Z,22.1
2016-04-20T15:56:59.556Z,22.1
2016-04-20T15:57:58.731Z,22.1
2016-04-20T15:58:58.068Z,22.1
2016-04-20T15:59:57.471Z,22.1
2016-04-20T16:00:58.532Z,22.1
2016-04-20T16:01:57.872Z,22.1
2016-04-20T16:02:57.203Z,22.1
2016-04-20T16:03:56.708Z,22.1
2016-04-20T16:04:55.957Z,22.1
2016-04-20T16:06:54.504Z,22.1
2016-04-20T16:07:53.800Z,22.2
2016-04-20T16:08:53.105Z,22.2
2016-04-20T16:09:52.473Z,22.2
2016-04-20T16:10:53.496Z,22.2
2016-04-20T16:11:52.786Z,22.2
2016-04-20T16:12:52.230Z,22.2
2016-04-20T16:13:51.516Z,22.2
2016-04-20T16:14:50.709Z,22.1
2016-04-20T16:15:50.010Z,22.1
2016-04-20T16:16:49.310Z,22.2
2016-04-20T16:17:48.612Z,22.2
2016-04-20T16:18:47.913Z,22.1
2016-04-20T16:19:47.400Z,22.1
2016-04-20T16:20:48.295Z,22.2
2016-04-20T16:21:47.595Z,22.1
2016-04-20T16:22:46.896Z,22.2
2016-04-20T16:23:46.210Z,22.1
2016-04-20T16:24:45.510Z,22.2
2016-04-20T16:25:44.810Z,22.2
2016-04-20T16:26:44.110Z,22.1
2016-04-20T16:27:43.410Z,22.1
2016-04-20T16:28:42.710Z,22.1
2016-04-20T16:29:42.072Z,22.1
2016-04-20T16:30:43.091Z,22.1
2016-04-20T16:31:42.390Z,22.1
2016-04-20T16:32:41.689Z,22.1
2016-04-20T16:33:41.113Z,22.1
2016-04-20T16:34:40.288Z,22.1
2016-04-20T16:35:39.588Z,22.1
2016-04-20T16:36:38.903Z,22.1
2016-04-20T16:37:38.202Z,22.1
2016-04-20T16:38:37.502Z,22.1
2016-04-20T16:39:36.849Z,22.1
2016-04-20T16:40:37.867Z,22.1
2016-04-20T16:41:37.182Z,22.1
2016-04-20T16:42:36.482Z,22.1
2016-04-20T16:43:35.781Z,22.1
2016-04-20T16:44:35.096Z,22.1
2016-04-20T16:45:34.381Z,22.1
2016-04-20T16:46:33.680Z,22.1
2016-04-20T16:47:32.979Z,22.1
2016-04-20T16:48:32.276Z,22.1
2016-04-20T16:49:31.654Z,22
2016-04-20T16:50:32.782Z,22.1
2016-04-20T16:51:31.973Z,22.1
2016-04-20T16:52:31.272Z,22
2016-04-20T16:53:30.572Z,22.1
2016-04-20T16:54:29.870Z,22.1
2016-04-20T16:55:29.170Z,22.1
2016-04-20T16:56:28.470Z,22.1
2016-04-20T16:57:27.800Z,22.1
2016-04-20T16:58:27.069Z,22.1
2016-04-20T16:59:26.431Z,22.1
2016-04-20T17:00:27.450Z,22.1
2016-04-20T17:01:26.874Z,22.1
2016-04-20T17:02:26.049Z,22.1
2016-04-20T17:03:25.363Z,22.1
2016-04-20T17:04:24.663Z,22.1
2016-04-20T17:05:23.963Z,22.1
2016-04-20T17:06:23.263Z,22.1
2016-04-20T17:07:22.562Z,22.1
2016-04-20T17:08:21.862Z,22.1
2016-04-20T17:09:21.224Z,22.1
2016-04-20T17:10:22.242Z,22.1
2016-04-20T17:11:21.541Z,22.1
2016-04-20T17:12:20.841Z,22.1
2016-04-20T17:13:20.266Z,22.1
2016-04-20T17:14:19.440Z,22.1
2016-04-20T17:15:18.740Z,22.1
2016-04-20T17:16:18.165Z,22.1
2016-04-20T17:17:17.355Z,22.1
2016-04-20T17:18:16.654Z,22.1
2016-04-20T17:19:16.125Z,22.1
2016-04-20T17:20:17.019Z,22.1
2016-04-20T17:21:16.334Z,22.1
2016-04-20T17:22:15.743Z,22.1
2016-04-20T17:23:14.934Z,22.1
2016-04-20T17:24:14.358Z,22
2016-04-20T17:25:13.548Z,22
2016-04-20T17:26:12.848Z,22.1
2016-04-20T17:27:12.163Z,22
2016-04-20T17:28:11.446Z,22
2016-04-20T17:29:10.824Z,22.1
2016-04-20T17:30:11.828Z,22
2016-04-20T17:31:11.127Z,22
2016-04-20T17:32:10.426Z,22
2016-04-20T17:33:09.851Z,22
2016-04-20T17:34:09.041Z,22
2016-04-20T17:35:08.341Z,22
2016-04-20T17:36:07.641Z,22
2016-04-20T17:37:06.940Z,22
2016-04-20T17:38:06.239Z,22
2016-04-20T17:39:05.601Z,22
2016-04-20T17:40:06.619Z,22
2016-04-20T17:41:05.919Z,22
2016-04-20T17:42:05.235Z,22
2016-04-20T17:43:04.519Z,22
2016-04-20T17:44:03.943Z,22
2016-04-20T17:45:03.133Z,21.9
2016-04-20T17:46:02.543Z,21.9
2016-04-20T17:47:01.717Z,21.9
2016-04-20T17:48:01.016Z,21.9
2016-04-20T17:49:00.487Z,21.9
2016-04-20T17:50:01.397Z,21.9
2016-04-20T17:51:00.806Z,21.9
2016-04-20T17:51:59.996Z,21.9
2016-04-20T17:52:59.404Z,21.9
2016-04-20T17:53:59.835Z,21.9
2016-04-20T17:54:58.010Z,21.9
2016-04-20T17:55:57.309Z,21.9
2016-04-20T17:56:56.499Z,21.9
2016-04-20T17:57:55.799Z,21.9
2016-04-20T17:58:55.270Z,21.9
2016-04-20T17:59:56.179Z,21.9
2016-04-20T18:00:55.478Z,21.9
2016-04-20T18:01:54.903Z,21.9
2016-04-20T18:02:54.203Z,21.9
2016-04-20T18:03:53.377Z,21.9
2016-04-20T18:04:52.693Z,21.9
2016-04-20T18:05:51.992Z,21.9
2016-04-20T18:06:52.946Z,21.9
2016-04-20T18:07:50.589Z,21.9
2016-04-20T18:08:50.062Z,21.8
2016-04-20T18:09:50.954Z,21.8
2016-04-20T18:10:50.269Z,21.8
2016-04-20T18:11:49.570Z,21.8
2016-04-20T18:12:48.869Z,21.8
2016-04-20T18:13:48.168Z,21.8
2016-04-20T18:14:47.467Z,21.8
2016-04-20T18:15:46.767Z,21.8
2016-04-20T18:16:46.067Z,21.8
2016-04-20T18:17:45.371Z,21.8
2016-04-20T18:18:44.842Z,21.8
2016-04-20T18:19:45.750Z,21.8
2016-04-20T18:20:45.051Z,21.8
2016-04-20T18:21:44.370Z,21.8
2016-04-20T18:22:43.654Z,21.8
2016-04-20T18:23:42.954Z,21.8
2016-04-20T18:24:41.769Z,21.8
2016-04-20T18:25:40.052Z,21.8
2016-04-20T18:26:41.744Z,21.8
2016-04-20T18:27:42.449Z,21.7
2016-04-20T18:28:42.327Z,21.7
2016-04-20T18:29:43.330Z,21.7
2016-04-20T18:30:42.394Z,21.6
2016-04-20T18:31:41.178Z,21.6
2016-04-20T18:32:39.572Z,21.5
2016-04-20T18:33:37.369Z,21.6
2016-04-20T18:34:35.012Z,21.5
2016-04-20T18:35:32.811Z,21.6
2016-04-20T18:36:34.393Z,21.5
2016-04-20T18:37:35.849Z,21.6
2016-04-20T18:38:36.851Z,21.6
2016-04-20T18:39:37.869Z,21.6
2016-04-20T18:40:38.435Z,21.6
2016-04-20T18:41:38.750Z,21.6
2016-04-20T18:42:39.065Z,21.7
2016-04-20T18:43:39.789Z,21.7
2016-04-20T18:44:40.573Z,21.7
2016-04-20T18:45:41.794Z,21.7
2016-04-20T18:46:43.110Z,21.7
2016-04-20T18:47:44.675Z,21.7
2016-04-20T18:48:42.646Z,21.8
2016-04-20T18:49:43.539Z,21.8
2016-04-20T18:50:41.573Z,21.8
2016-04-20T18:51:39.854Z,21.9
2016-04-20T18:52:38.138Z,21.9
2016-04-20T18:53:36.439Z,21.9
2016-04-20T18:54:34.972Z,21.9
2016-04-20T18:55:33.522Z,22
2016-04-20T18:56:32.322Z,22
2016-04-20T18:57:31.105Z,22.1
2016-04-20T18:58:30.077Z,22.1
2016-04-20T18:59:30.970Z,22.1
2016-04-20T19:00:29.878Z,22.2
2016-04-20T19:01:28.554Z,22.2
2016-04-20T19:02:27.353Z,22.2
2016-04-20T19:03:26.511Z,22.2
2016-04-20T19:04:25.452Z,22.3
2016-04-20T19:05:24.502Z,22.3
2016-04-20T19:06:23.552Z,22.3
2016-04-20T19:07:22.602Z,22.3
2016-04-20T19:08:21.806Z,22.3
2016-04-20T19:09:22.731Z,22.3
2016-04-20T19:10:22.015Z,22.4
2016-04-20T19:11:21.440Z,22.4
2016-04-20T19:12:20.629Z,22.4
2016-04-20T19:13:20.071Z,22.4
2016-04-20T19:14:19.245Z,22.4
2016-04-20T19:15:18.513Z,22.3
2016-04-20T19:16:17.829Z,22.4
2016-04-20T19:17:17.143Z,22.4
2016-04-20T19:18:16.505Z,22.4
2016-04-20T19:19:17.492Z,22.3
2016-04-20T19:20:16.807Z,22.3
2016-04-20T19:21:16.342Z,22.3
2016-04-20T19:22:15.907Z,22.3
2016-04-20T19:23:15.456Z,22.3
2016-04-20T19:24:14.756Z,22.3
2016-04-20T19:25:14.305Z,22.3
2016-04-20T19:26:13.870Z,22.3
2016-04-20T19:27:13.545Z,22.3
2016-04-20T19:28:13.033Z,22.2
2016-04-20T19:29:14.066Z,22.2
2016-04-20T19:30:13.866Z,22.2
2016-04-20T19:31:13.775Z,22.2
2016-04-20T19:32:13.464Z,22.2
2016-04-20T19:33:13.281Z,22.1
2016-04-20T19:34:13.095Z,22.1
2016-04-20T19:35:12.894Z,22.1
2016-04-20T19:36:12.304Z,22.1
2016-04-20T19:37:10.978Z,22.1
2016-04-20T19:38:09.074Z,22
2016-04-20T19:39:10.109Z,22
2016-04-20T19:40:11.424Z,21.9
2016-04-20T19:41:12.630Z,21.9
2016-04-20T19:42:13.446Z,21.9
2016-04-20T19:43:14.151Z,21.8
2016-04-20T19:44:14.716Z,21.8
2016-04-20T19:45:15.015Z,21.7
2016-04-20T19:46:15.331Z,21.7
2016-04-20T19:47:15.662Z,21.7
2016-04-20T19:48:15.758Z,21.7
2016-04-20T19:49:16.885Z,21.7
2016-04-20T19:50:16.576Z,21.6
2016-04-20T19:51:16.391Z,21.6
2016-04-20T19:52:16.190Z,21.5
2016-04-20T19:53:16.006Z,21.5
2016-04-20T19:54:15.914Z,21.5
2016-04-20T19:55:15.464Z,21.4
2016-04-20T19:56:14.920Z,21.4
2016-04-20T19:57:14.220Z,21.4
2016-04-20T19:58:13.581Z,21.4
2016-04-20T19:59:14.600Z,21.3
2016-04-20T20:00:13.900Z,21.3
2016-04-20T20:01:13.247Z,21.3
2016-04-20T20:02:12.795Z,21.3
2016-04-20T20:03:11.798Z,21.3
2016-04-20T20:04:11.207Z,21.2
2016-04-20T20:05:10.398Z,21.2
2016-04-20T20:06:09.697Z,21.2
2016-04-20T20:07:09.013Z,21.1
2016-04-20T20:08:08.358Z,21.1
2016-04-20T20:09:09.486Z,21.1
2016-04-20T20:10:09.191Z,21.1
2016-04-20T20:11:09.241Z,21.1
2016-04-20T20:12:09.683Z,21.1
2016-04-20T20:13:09.996Z,21.1
2016-04-20T20:14:10.452Z,21.2
2016-04-20T20:15:11.018Z,21.2
2016-04-20T20:16:11.958Z,21.3
2016-04-20T20:17:12.774Z,21.3
2016-04-20T20:18:13.557Z,21.3
2016-04-20T20:19:14.545Z,21.4
2016-04-20T20:20:15.376Z,21.5
2016-04-20T20:21:16.206Z,21.5
2016-04-20T20:22:17.029Z,21.5
2016-04-20T20:23:18.104Z,21.6
2016-04-20T20:24:19.186Z,21.6
2016-04-20T20:25:20.250Z,21.7
2016-04-20T20:26:21.316Z,21.7
2016-04-20T20:27:22.411Z,21.7
2016-04-20T20:28:23.525Z,21.7
2016-04-20T20:29:24.542Z,21.7
2016-04-20T20:30:25.997Z,21.7
2016-04-20T20:31:27.330Z,21.7
2016-04-20T20:32:28.535Z,21.7
2016-04-20T20:33:29.991Z,21.7
2016-04-20T20:34:31.352Z,21.7
2016-04-20T20:35:32.527Z,21.7
2016-04-20T20:36:33.858Z,21.7
2016-04-20T20:37:35.188Z,21.7
2016-04-20T20:38:36.567Z,21.7
2016-04-20T20:39:37.601Z,21.8
2016-04-20T20:40:39.165Z,21.7
2016-04-20T20:41:40.856Z,21.7
2016-04-20T20:42:38.640Z,21.7
2016-04-20T20:43:36.314Z,21.8
2016-04-20T20:44:34.207Z,21.8
2016-04-20T20:46:29.650Z,21.8
2016-04-20T20:47:27.560Z,21.8
2016-04-20T20:48:25.265Z,21.9
2016-04-20T20:49:26.408Z,21.9
2016-04-20T20:50:24.068Z,21.9
2016-04-20T20:51:21.961Z,21.9
2016-04-20T20:52:19.994Z,21.9
2016-04-20T20:53:18.028Z,21.9
2016-04-20T20:54:16.251Z,21.9
2016-04-20T20:55:13.987Z,22
2016-04-20T20:56:12.006Z,21.9
2016-04-20T20:57:10.055Z,22
2016-04-20T20:58:08.136Z,22
2016-04-20T20:59:09.154Z,22
2016-04-20T21:00:07.204Z,22
2016-04-20T21:01:05.222Z,22
2016-04-20T21:02:03.257Z,22.1
2016-04-20T21:03:01.540Z,22.1
2016-04-20T21:03:59.576Z,22.1
2016-04-20T21:04:57.859Z,22.1
2016-04-20T21:05:56.159Z,22.1
2016-04-20T21:06:54.442Z,22.1
2016-04-20T21:07:52.898Z,22.1
2016-04-20T21:08:53.806Z,22.1
2016-04-20T21:09:52.091Z,22.2
2016-04-20T21:10:50.122Z,22.2
2016-04-20T21:11:48.407Z,22.2
2016-04-20T21:12:46.705Z,22.2
2016-04-20T21:13:44.974Z,22.2
2016-04-20T21:14:43.274Z,22.1
2016-04-20T21:15:41.667Z,22.2
2016-04-20T21:16:39.842Z,22.1
2016-04-20T21:17:38.188Z,22.1
2016-04-20T21:18:39.331Z,22.2
2016-04-20T21:19:37.788Z,22.2
2016-04-20T21:20:36.540Z,22.2
2016-04-20T21:21:35.339Z,22.1
2016-04-20T21:22:34.123Z,22.1
2016-04-20T21:23:33.173Z,22.2
2016-04-20T21:24:32.347Z,22.1
2016-04-20T21:25:31.522Z,22.1
2016-04-20T21:26:30.821Z,22.1
2016-04-20T21:27:30.199Z,22.1
2016-04-20T21:28:31.218Z,22.1
2016-04-20T21:29:30.611Z,22.1
2016-04-20T21:30:29.801Z,22.1
2016-04-20T21:31:29.101Z,22.1
2016-04-20T21:32:28.526Z,22.1
2016-04-20T21:33:27.965Z,22.1
2016-04-20T21:34:27.624Z,22.1
2016-04-20T21:35:27.065Z,22.1
2016-04-20T21:36:26.739Z,22
2016-04-20T21:37:25.976Z,22
2016-04-20T21:38:26.995Z,22
2016-04-20T21:39:26.373Z,22
2016-04-20T21:40:25.595Z,22
2016-04-20T21:41:24.956Z,21.9
2016-04-20T21:42:24.317Z,21.9
2016-04-20T21:43:23.492Z,21.9
2016-04-20T21:44:23.167Z,21.9